createdAt,value
2022-11-22T00:00:34.983Z,19.61
2022-11-22T00:01:35.026Z,19.54
2022-11-22T00:02:35.063Z,19.50
2022-11-22T00:03:34.949Z,19.55
2022-11-22T00:04:34.942Z,19.46
2022-11-22T00:05:34.926Z,19.60
2022-11-22T00:06:34.913Z,19.47
2022-11-22T00:07:35.011Z,19.61
2022-11-22T00:08:34.917Z,19.48
2022-11-22T00:09:34.880Z,19.58
2022-11-22T00:10:34.875Z,19.48
2022-11-22T00:11:34.858Z,19.48
2022-11-22T00:12:34.846Z,19.43
2022-11-22T00:13:34.836Z,19.54
2022-11-22T00:14:34.823Z,19.65
2022-11-22T00:15:34.813Z,19.40
2022-11-22T00:16:34.839Z,19.48
2022-11-22T00:17:34.790Z,19.43
2022-11-22T00:18:34.781Z,19.43
2022-11-22T00:19:34.768Z,19.51
2022-11-22T00:20:34.757Z,19.48
2022-11-22T00:21:34.746Z,19.50
2022-11-22T00:22:38.503Z,19.48
2022-11-22T00:23:35.726Z,19.58
2022-11-22T00:24:34.733Z,19.54
2022-11-22T00:25:34.702Z,19.48
2022-11-22T00:26:34.690Z,19.43
2022-11-22T00:27:34.686Z,19.51
2022-11-22T00:28:34.673Z,19.46
2022-11-22T00:29:34.668Z,19.46
2022-11-22T00:30:34.648Z,19.53
2022-11-22T00:31:34.633Z,19.63
2022-11-22T00:32:34.622Z,19.47
2022-11-22T00:33:34.614Z,19.47
2022-11-22T00:34:34.631Z,19.48
2022-11-22T00:35:34.589Z,19.63
2022-11-22T00:36:34.577Z,19.48
2022-11-22T00:37:34.572Z,19.60
2022-11-22T00:38:34.555Z,19.69
2022-11-22T00:39:34.544Z,19.53
2022-11-22T00:40:34.558Z,19.46
2022-11-22T00:41:34.523Z,19.50
2022-11-22T00:42:34.511Z,19.53
2022-11-22T00:43:34.501Z,19.57
2022-11-22T00:44:34.489Z,19.54
2022-11-22T00:45:34.477Z,19.46
2022-11-22T00:46:34.473Z,19.57
2022-11-22T00:47:34.455Z,19.61
2022-11-22T00:48:34.446Z,19.63
2022-11-22T00:49:34.433Z,19.54
2022-11-22T00:50:34.422Z,19.57
2022-11-22T00:51:34.409Z,19.57
2022-11-22T00:52:34.420Z,19.55
2022-11-22T00:53:34.387Z,19.63
2022-11-22T00:54:34.376Z,19.58
2022-11-22T00:55:34.365Z,19.61
2022-11-22T00:56:34.370Z,19.63
2022-11-22T00:57:34.343Z,19.63
2022-11-22T00:58:34.346Z,19.65
2022-11-22T00:59:34.325Z,19.65
2022-11-22T01:00:34.371Z,19.68
2022-11-22T01:01:34.340Z,19.60
2022-11-22T01:02:34.287Z,19.65
2022-11-22T01:03:34.275Z,19.63
2022-11-22T01:04:34.271Z,19.60
2022-11-22T01:05:34.254Z,19.65
2022-11-22T01:06:34.244Z,19.61
2022-11-22T01:07:34.269Z,19.69
2022-11-22T01:08:34.221Z,19.61
2022-11-22T01:09:34.217Z,19.63
2022-11-22T01:10:34.229Z,19.72
2022-11-22T01:11:34.186Z,19.73
2022-11-22T01:12:34.198Z,19.63
2022-11-22T01:13:34.164Z,19.75
2022-11-22T01:14:34.153Z,19.63
2022-11-22T01:15:34.141Z,19.75
2022-11-22T01:16:34.152Z,19.69
2022-11-22T01:17:34.118Z,19.66
2022-11-22T01:18:34.112Z,19.72
2022-11-22T01:19:34.096Z,19.79
2022-11-22T01:20:34.085Z,19.75
2022-11-22T01:21:34.076Z,19.79
2022-11-22T01:22:34.069Z,19.76
2022-11-22T01:23:34.051Z,19.73
2022-11-22T01:24:34.040Z,19.76
2022-11-22T01:25:34.030Z,19.83
2022-11-22T01:26:34.019Z,19.75
2022-11-22T01:27:34.007Z,19.75
2022-11-22T01:28:34.030Z,19.76
2022-11-22T01:29:33.983Z,19.73
2022-11-22T01:30:33.974Z,19.79
2022-11-22T01:31:33.963Z,19.73
2022-11-22T01:32:33.950Z,19.75
2022-11-22T01:33:33.941Z,19.78
2022-11-22T01:34:33.934Z,19.76
2022-11-22T01:35:33.917Z,19.78
2022-11-22T01:36:33.912Z,19.72
2022-11-22T01:37:33.894Z,19.76
2022-11-22T01:38:33.883Z,19.83
2022-11-22T01:39:33.871Z,19.84
2022-11-22T01:40:33.868Z,19.79
2022-11-22T01:41:33.850Z,19.83
2022-11-22T01:42:33.839Z,19.84
2022-11-22T01:43:33.827Z,19.83
2022-11-22T01:44:33.832Z,19.75
2022-11-22T01:45:33.807Z,19.83
2022-11-22T01:46:33.822Z,19.84
2022-11-22T01:47:33.783Z,19.83
2022-11-22T01:48:33.773Z,19.87
2022-11-22T01:49:33.760Z,19.90
2022-11-22T01:50:33.756Z,19.80
2022-11-22T01:51:33.738Z,19.83
2022-11-22T01:52:33.733Z,19.83
2022-11-22T01:53:33.720Z,19.87
2022-11-22T01:54:33.704Z,19.84
2022-11-22T01:55:33.692Z,19.88
2022-11-22T01:56:33.681Z,19.84
2022-11-22T01:57:33.673Z,19.91
2022-11-22T01:58:33.683Z,19.88
2022-11-22T01:59:33.650Z,19.80
2022-11-22T02:00:33.660Z,19.90
2022-11-22T02:01:33.680Z,19.84
2022-11-22T02:02:33.617Z,19.86
2022-11-22T02:03:33.604Z,19.90
2022-11-22T02:04:33.609Z,19.83
2022-11-22T02:05:33.584Z,19.87
2022-11-22T02:06:33.571Z,19.91
2022-11-22T02:07:33.608Z,19.93
2022-11-22T02:08:33.547Z,19.93
2022-11-22T02:09:33.585Z,19.87
2022-11-22T02:10:33.532Z,19.88
2022-11-22T02:11:34.419Z,19.93
2022-11-22T02:12:33.502Z,19.90
2022-11-22T02:13:33.492Z,19.83
2022-11-22T02:14:33.480Z,19.91
2022-11-22T02:15:33.472Z,19.95
2022-11-22T02:16:33.481Z,19.93
2022-11-22T02:17:33.448Z,19.91
2022-11-22T02:18:33.437Z,19.94
2022-11-22T02:19:33.425Z,19.94
2022-11-22T02:20:33.413Z,19.93
2022-11-22T02:21:33.402Z,19.93
2022-11-22T02:22:33.427Z,19.94
2022-11-22T02:23:33.383Z,19.95
2022-11-22T02:24:33.369Z,19.95
2022-11-22T02:25:33.357Z,19.97
2022-11-22T02:26:33.346Z,19.97
2022-11-22T02:27:33.335Z,19.97
2022-11-22T02:28:33.353Z,19.94
2022-11-22T02:29:33.313Z,19.97
2022-11-22T02:30:33.303Z,19.95
2022-11-22T02:31:33.291Z,20.02
2022-11-22T02:32:33.295Z,19.94
2022-11-22T02:33:33.268Z,19.98
2022-11-22T02:34:33.272Z,19.97
2022-11-22T02:35:33.250Z,19.94
2022-11-22T02:36:33.236Z,19.93
2022-11-22T02:37:33.225Z,19.98
2022-11-22T02:38:33.212Z,19.95
2022-11-22T02:39:33.245Z,19.95
2022-11-22T02:40:33.204Z,19.98
2022-11-22T02:41:33.179Z,20.02
2022-11-22T02:42:33.169Z,19.97
2022-11-22T02:43:33.157Z,20.00
2022-11-22T02:44:33.143Z,19.95
2022-11-22T02:45:33.133Z,19.98
2022-11-22T02:46:33.129Z,20.00
2022-11-22T02:47:33.110Z,19.97
2022-11-22T02:48:33.122Z,19.98
2022-11-22T02:49:33.370Z,19.98
2022-11-22T02:50:33.088Z,20.02
2022-11-22T02:51:33.086Z,20.02
2022-11-22T02:52:33.062Z,19.95
2022-11-22T02:53:33.057Z,19.95
2022-11-22T02:54:33.041Z,19.97
2022-11-22T02:55:33.027Z,19.98
2022-11-22T02:56:33.010Z,19.97
2022-11-22T02:57:32.999Z,19.98
2022-11-22T02:58:33.017Z,19.97
2022-11-22T02:59:32.980Z,20.05
2022-11-22T03:00:32.979Z,19.97
2022-11-22T03:01:33.061Z,19.94
2022-11-22T03:02:32.943Z,20.03
2022-11-22T03:03:32.931Z,20.02
2022-11-22T03:04:32.959Z,19.95
2022-11-22T03:05:32.914Z,20.00
2022-11-22T03:06:32.899Z,19.97
2022-11-22T03:07:32.941Z,19.98
2022-11-22T03:08:32.878Z,19.98
2022-11-22T03:09:33.301Z,20.02
2022-11-22T03:10:32.858Z,20.03
2022-11-22T03:11:32.842Z,19.95
2022-11-22T03:12:32.832Z,19.95
2022-11-22T03:13:32.820Z,20.02
2022-11-22T03:14:32.810Z,19.95
2022-11-22T03:15:32.798Z,19.98
2022-11-22T03:16:32.803Z,19.98
2022-11-22T03:17:32.780Z,20.02
2022-11-22T03:18:32.767Z,19.98
2022-11-22T03:19:33.036Z,20.08
2022-11-22T03:20:32.760Z,19.98
2022-11-22T03:21:32.731Z,19.97
2022-11-22T03:22:32.726Z,20.00
2022-11-22T03:23:32.708Z,20.02
2022-11-22T03:24:32.697Z,20.03
2022-11-22T03:25:32.686Z,20.00
2022-11-22T03:26:32.675Z,20.02
2022-11-22T03:27:32.662Z,19.98
2022-11-22T03:28:33.171Z,20.02
2022-11-22T03:29:32.867Z,19.97
2022-11-22T03:30:32.629Z,20.00
2022-11-22T03:31:32.619Z,20.00
2022-11-22T03:32:32.608Z,20.00
2022-11-22T03:33:32.597Z,20.00
2022-11-22T03:34:32.592Z,20.03
2022-11-22T03:35:32.573Z,20.00
2022-11-22T03:36:32.584Z,20.02
2022-11-22T03:37:32.553Z,20.02
2022-11-22T03:38:32.544Z,20.05
2022-11-22T03:39:32.790Z,20.03
2022-11-22T03:40:32.550Z,20.05
2022-11-22T03:41:32.507Z,20.00
2022-11-22T03:42:32.496Z,19.98
2022-11-22T03:43:32.484Z,20.06
2022-11-22T03:44:32.472Z,20.06
2022-11-22T03:45:32.473Z,20.08
2022-11-22T03:46:32.463Z,20.00
2022-11-22T03:47:32.440Z,20.08
2022-11-22T03:48:32.429Z,20.09
2022-11-22T03:49:32.810Z,20.05
2022-11-22T03:50:32.405Z,20.09
2022-11-22T03:51:32.394Z,20.02
2022-11-22T03:52:32.423Z,19.98
2022-11-22T03:53:32.375Z,20.08
2022-11-22T03:54:32.361Z,19.98
2022-11-22T03:55:32.350Z,20.03
2022-11-22T03:56:32.343Z,20.10
2022-11-22T03:57:32.327Z,20.06
2022-11-22T03:58:32.323Z,19.95
2022-11-22T03:59:32.456Z,20.02
2022-11-22T04:00:32.293Z,20.13
2022-11-22T04:01:32.365Z,19.98
2022-11-22T04:02:32.270Z,20.00
2022-11-22T04:03:32.262Z,20.02
2022-11-22T04:04:32.280Z,20.12
2022-11-22T04:05:32.238Z,20.08
2022-11-22T04:06:32.226Z,19.98
2022-11-22T04:07:32.263Z,20.05
2022-11-22T04:08:32.336Z,20.00
2022-11-22T04:09:32.617Z,20.12
2022-11-22T04:10:32.189Z,20.00
2022-11-22T04:11:32.175Z,20.10
2022-11-22T04:12:32.161Z,20.09
2022-11-22T04:13:32.154Z,20.00
2022-11-22T04:14:32.137Z,20.00
2022-11-22T04:15:32.129Z,20.08
2022-11-22T04:16:32.137Z,19.97
2022-11-22T04:17:32.104Z,20.00
2022-11-22T04:18:32.092Z,20.06
2022-11-22T04:19:32.394Z,20.06
2022-11-22T04:20:32.070Z,20.08
2022-11-22T04:21:32.058Z,20.09
2022-11-22T04:22:32.057Z,20.03
2022-11-22T04:23:34.183Z,19.97
2022-11-22T04:24:32.044Z,19.97
2022-11-22T04:25:32.014Z,20.08
2022-11-22T04:26:32.003Z,20.06
2022-11-22T04:27:31.991Z,20.06
2022-11-22T04:28:54.027Z,19.95
2022-11-22T04:29:33.293Z,20.10
2022-11-22T04:30:31.957Z,19.97
2022-11-22T04:31:31.948Z,20.02
2022-11-22T04:32:31.936Z,20.12
2022-11-22T04:33:31.925Z,20.03
2022-11-22T04:34:31.936Z,20.09
2022-11-22T04:35:31.902Z,19.95
2022-11-22T04:36:31.891Z,20.00
2022-11-22T04:37:31.880Z,20.03
2022-11-22T04:38:31.869Z,20.02
2022-11-22T04:39:32.235Z,20.10
2022-11-22T04:40:31.894Z,20.10
2022-11-22T04:41:31.835Z,20.09
2022-11-22T04:42:31.839Z,19.98
2022-11-22T04:43:31.813Z,20.00
2022-11-22T04:44:31.801Z,20.09
2022-11-22T04:45:31.790Z,20.03
2022-11-22T04:46:31.795Z,20.13
2022-11-22T04:47:31.779Z,20.06
2022-11-22T04:48:31.756Z,20.05
2022-11-22T04:49:32.108Z,20.02
2022-11-22T04:50:31.734Z,20.03
2022-11-22T04:51:31.727Z,20.02
2022-11-22T04:52:31.732Z,20.10
2022-11-22T04:53:31.706Z,20.06
2022-11-22T04:54:31.690Z,20.06
2022-11-22T04:55:31.680Z,20.03
2022-11-22T04:56:31.685Z,19.98
2022-11-22T04:57:31.654Z,20.03
2022-11-22T04:58:31.651Z,19.98
2022-11-22T04:59:31.997Z,20.03
2022-11-22T05:00:31.621Z,20.06
2022-11-22T05:01:31.727Z,20.08
2022-11-22T05:02:31.604Z,20.05
2022-11-22T05:03:31.589Z,20.03
2022-11-22T05:04:31.592Z,20.03
2022-11-22T05:05:31.570Z,20.08
2022-11-22T05:06:31.556Z,20.05
2022-11-22T05:07:31.619Z,20.03
2022-11-22T05:08:31.533Z,20.09
2022-11-22T05:09:31.744Z,20.02
2022-11-22T05:10:31.517Z,20.05
2022-11-22T05:11:31.503Z,20.08
2022-11-22T05:12:31.508Z,20.05
2022-11-22T05:13:31.477Z,20.06
2022-11-22T05:14:31.466Z,20.08
2022-11-22T05:15:31.453Z,20.03
2022-11-22T05:16:31.462Z,20.03
2022-11-22T05:17:31.433Z,20.09
2022-11-22T05:18:31.422Z,20.10
2022-11-22T05:19:31.649Z,20.05
2022-11-22T05:20:31.397Z,20.03
2022-11-22T05:21:31.386Z,20.08
2022-11-22T05:22:31.381Z,20.05
2022-11-22T05:23:31.375Z,20.06
2022-11-22T05:24:31.352Z,20.08
2022-11-22T05:25:31.343Z,20.02
2022-11-22T05:26:31.332Z,20.05
2022-11-22T05:27:31.320Z,20.06
2022-11-22T05:28:31.355Z,20.08
2022-11-22T05:29:31.616Z,20.06
2022-11-22T05:30:31.285Z,20.10
2022-11-22T05:31:31.275Z,20.10
2022-11-22T05:32:31.264Z,20.10
2022-11-22T05:33:31.254Z,20.09
2022-11-22T05:34:31.264Z,20.12
2022-11-22T05:35:31.229Z,20.06
2022-11-22T05:36:31.219Z,20.08
2022-11-22T05:37:31.208Z,20.08
2022-11-22T05:38:31.197Z,20.09
2022-11-22T05:39:31.507Z,20.09
2022-11-22T05:40:31.189Z,20.09
2022-11-22T05:41:31.167Z,20.09
2022-11-22T05:42:31.151Z,20.10
2022-11-22T05:43:31.141Z,20.05
2022-11-22T05:44:31.154Z,20.12
2022-11-22T05:45:31.121Z,20.10
2022-11-22T05:46:31.112Z,20.15
2022-11-22T05:47:31.095Z,20.06
2022-11-22T05:48:31.084Z,20.06
2022-11-22T05:49:31.366Z,20.08
2022-11-22T05:50:31.064Z,20.08
2022-11-22T05:51:34.663Z,20.06
2022-11-22T05:52:31.064Z,20.09
2022-11-22T05:53:31.028Z,20.12
2022-11-22T05:54:31.018Z,20.12
2022-11-22T05:55:31.006Z,20.08
2022-11-22T05:56:31.002Z,20.10
2022-11-22T05:57:30.986Z,20.09
2022-11-22T05:58:30.980Z,20.08
2022-11-22T05:59:31.376Z,20.05
2022-11-22T06:00:30.966Z,20.06
2022-11-22T06:01:30.941Z,20.09
2022-11-22T06:02:30.978Z,20.10
2022-11-22T06:03:30.916Z,20.10
2022-11-22T06:04:30.911Z,20.08
2022-11-22T06:05:30.895Z,20.06
2022-11-22T06:06:30.886Z,20.08
2022-11-22T06:07:30.895Z,20.13
2022-11-22T06:08:30.874Z,20.08
2022-11-22T06:09:31.153Z,20.12
2022-11-22T06:10:30.853Z,20.12
2022-11-22T06:11:30.833Z,20.10
2022-11-22T06:12:30.815Z,20.10
2022-11-22T06:13:30.805Z,20.08
2022-11-22T06:14:30.794Z,20.09
2022-11-22T06:15:30.781Z,20.12
2022-11-22T06:16:30.822Z,20.09
2022-11-22T06:17:30.760Z,20.09
2022-11-22T06:18:30.747Z,20.06
2022-11-22T06:19:30.904Z,20.06
2022-11-22T06:20:30.727Z,20.10
2022-11-22T06:21:30.715Z,20.09
2022-11-22T06:22:30.733Z,20.10
2022-11-22T06:23:30.692Z,20.09
2022-11-22T06:24:30.688Z,20.08
2022-11-22T06:25:30.671Z,20.08
2022-11-22T06:26:33.549Z,20.09
2022-11-22T06:27:31.652Z,20.10
2022-11-22T06:28:30.638Z,20.10
2022-11-22T06:29:30.905Z,20.09
2022-11-22T06:30:30.615Z,20.13
2022-11-22T06:31:30.606Z,20.09
2022-11-22T06:32:30.616Z,20.09
2022-11-22T06:33:30.595Z,20.10
2022-11-22T06:34:30.579Z,20.10
2022-11-22T06:35:30.557Z,20.06
2022-11-22T06:36:30.547Z,20.06
2022-11-22T06:37:30.538Z,20.13
2022-11-22T06:38:30.528Z,20.08
2022-11-22T06:39:30.752Z,20.13
2022-11-22T06:40:30.502Z,20.12
2022-11-22T06:41:30.491Z,20.09
2022-11-22T06:42:30.480Z,20.09
2022-11-22T06:43:30.469Z,20.12
2022-11-22T06:44:30.457Z,20.09
2022-11-22T06:45:30.463Z,20.12
2022-11-22T06:46:30.434Z,20.10
2022-11-22T06:47:30.422Z,20.13
2022-11-22T06:48:30.429Z,20.10
2022-11-22T06:49:30.767Z,20.12
2022-11-22T06:50:30.391Z,20.15
2022-11-22T06:51:30.394Z,20.09
2022-11-22T06:52:30.367Z,20.10
2022-11-22T06:53:46.756Z,20.05
2022-11-22T06:54:31.345Z,20.16
2022-11-22T06:55:49.818Z,20.06
2022-11-22T06:56:31.339Z,20.12
2022-11-22T06:57:30.310Z,20.10
2022-11-22T06:58:30.301Z,20.16
2022-11-22T06:59:30.639Z,20.23
2022-11-22T07:00:30.388Z,20.08
2022-11-22T07:01:30.324Z,20.08
2022-11-22T07:02:30.262Z,20.13
2022-11-22T07:03:30.245Z,20.15
2022-11-22T07:04:30.260Z,20.16
2022-11-22T07:05:30.225Z,20.18
2022-11-22T07:06:30.211Z,20.12
2022-11-22T07:07:30.227Z,20.09
2022-11-22T07:08:30.194Z,20.12
2022-11-22T07:09:30.373Z,20.13
2022-11-22T07:10:30.384Z,20.21
2022-11-22T07:11:30.157Z,20.10
2022-11-22T07:12:30.145Z,20.21
2022-11-22T07:13:30.131Z,20.12
2022-11-22T07:14:30.127Z,20.15
2022-11-22T07:15:30.111Z,20.09
2022-11-22T07:16:30.098Z,20.12
2022-11-22T07:17:30.088Z,20.15
2022-11-22T07:18:30.076Z,20.09
2022-11-22T07:19:30.555Z,20.15
2022-11-22T07:20:30.143Z,20.15
2022-11-22T07:21:30.045Z,20.13
2022-11-22T07:22:30.031Z,20.16
2022-11-22T07:23:30.021Z,20.20
2022-11-22T07:24:30.014Z,20.20
2022-11-22T07:25:29.998Z,20.21
2022-11-22T07:26:30.006Z,20.18
2022-11-22T07:27:29.977Z,20.15
2022-11-22T07:28:29.964Z,20.15
2022-11-22T07:29:30.258Z,20.21
2022-11-22T07:30:29.944Z,20.12
2022-11-22T07:31:29.930Z,20.23
2022-11-22T07:32:29.935Z,20.18
2022-11-22T07:33:29.908Z,20.13
2022-11-22T07:34:29.897Z,20.15
2022-11-22T07:35:29.886Z,20.20
2022-11-22T07:36:29.897Z,20.12
2022-11-22T07:37:29.863Z,20.20
2022-11-22T07:38:29.858Z,20.20
2022-11-22T07:39:30.172Z,20.18
2022-11-22T07:40:29.829Z,20.15
2022-11-22T07:41:29.818Z,20.16
2022-11-22T07:42:29.807Z,20.20
2022-11-22T07:43:29.804Z,20.23
2022-11-22T07:44:29.811Z,20.20
2022-11-22T07:45:29.774Z,20.15
2022-11-22T07:46:29.903Z,20.12
2022-11-22T07:47:29.752Z,20.13
2022-11-22T07:48:29.748Z,20.13
2022-11-22T07:49:30.017Z,20.13
2022-11-22T07:50:29.725Z,20.21
2022-11-22T07:51:29.710Z,20.13
2022-11-22T07:52:29.718Z,20.16
2022-11-22T07:53:29.684Z,20.13
2022-11-22T07:54:29.672Z,20.24
2022-11-22T07:55:29.661Z,20.20
2022-11-22T07:56:29.670Z,20.12
2022-11-22T07:57:29.641Z,20.15
2022-11-22T07:58:29.629Z,20.13
2022-11-22T07:59:29.922Z,20.23
2022-11-22T08:00:29.605Z,20.13
2022-11-22T08:01:29.718Z,20.21
2022-11-22T08:02:29.601Z,20.10
2022-11-22T08:03:29.608Z,20.20
2022-11-22T08:04:29.564Z,20.10
2022-11-22T08:05:29.551Z,20.18
2022-11-22T08:06:29.539Z,20.15
2022-11-22T08:07:29.588Z,20.25
2022-11-22T08:08:29.646Z,20.12
2022-11-22T08:09:29.763Z,20.28
2022-11-22T08:10:29.499Z,20.28
2022-11-22T08:11:29.484Z,20.24
2022-11-22T08:12:29.471Z,20.23
2022-11-22T08:13:29.458Z,20.25
2022-11-22T08:14:29.464Z,20.24
2022-11-22T08:15:29.436Z,20.18
2022-11-22T08:16:29.427Z,20.20
2022-11-22T08:17:29.418Z,20.20
2022-11-22T08:18:29.408Z,20.20
2022-11-22T08:19:29.621Z,20.23
2022-11-22T08:20:29.387Z,20.27
2022-11-22T08:21:29.372Z,20.30
2022-11-22T08:22:29.368Z,20.13
2022-11-22T08:23:29.350Z,20.24
2022-11-22T08:24:29.450Z,20.18
2022-11-22T08:25:29.324Z,20.16
2022-11-22T08:26:29.320Z,20.25
2022-11-22T08:27:29.303Z,20.27
2022-11-22T08:28:29.291Z,20.09
2022-11-22T08:29:29.558Z,20.25
2022-11-22T08:30:29.271Z,20.24
2022-11-22T08:31:29.257Z,20.15
2022-11-22T08:32:29.252Z,20.18
2022-11-22T08:33:29.236Z,20.23
2022-11-22T08:34:29.224Z,20.28
2022-11-22T08:35:29.212Z,20.30
2022-11-22T08:36:29.201Z,20.24
2022-11-22T08:37:29.199Z,20.28
2022-11-22T08:38:29.185Z,20.25
2022-11-22T08:39:29.486Z,20.28
2022-11-22T08:40:29.275Z,20.21
2022-11-22T08:41:29.149Z,20.31
2022-11-22T08:42:29.135Z,20.23
2022-11-22T08:43:29.127Z,20.30
2022-11-22T08:44:29.135Z,20.25
2022-11-22T08:45:29.104Z,20.20
2022-11-22T08:46:29.103Z,20.25
2022-11-22T08:47:29.079Z,20.27
2022-11-22T08:48:29.079Z,20.20
2022-11-22T08:49:29.452Z,20.23
2022-11-22T08:50:29.060Z,20.28
2022-11-22T08:51:29.034Z,20.24
2022-11-22T08:52:29.022Z,20.23
2022-11-22T08:53:29.011Z,20.25
2022-11-22T08:54:32.390Z,20.24
2022-11-22T08:55:30.015Z,20.24
2022-11-22T08:56:29.092Z,20.27
2022-11-22T08:57:28.969Z,20.24
2022-11-22T08:58:28.955Z,20.30
2022-11-22T08:59:29.241Z,20.34
2022-11-22T09:00:33.300Z,20.31
2022-11-22T09:01:29.030Z,20.28
2022-11-22T09:02:28.910Z,20.34
2022-11-22T09:03:28.898Z,20.35
2022-11-22T09:04:28.888Z,20.33
2022-11-22T09:05:29.468Z,20.30
2022-11-22T09:08:32.715Z,20.35
2022-11-22T09:09:42.449Z,20.25
2022-11-22T09:10:29.819Z,20.39
2022-11-22T09:11:28.812Z,20.30
2022-11-22T09:12:28.908Z,20.31
2022-11-22T09:13:28.792Z,20.30
2022-11-22T09:14:28.776Z,20.30
2022-11-22T09:15:28.763Z,20.30
2022-11-22T09:16:28.753Z,20.25
2022-11-22T09:17:28.741Z,20.31
2022-11-22T09:18:28.731Z,20.25
2022-11-22T09:19:28.921Z,20.30
2022-11-22T09:20:28.709Z,20.25
2022-11-22T09:21:28.697Z,20.31
2022-11-22T09:22:28.846Z,20.28
2022-11-22T09:23:28.676Z,20.27
2022-11-22T09:24:28.664Z,20.30
2022-11-22T09:25:28.658Z,20.33
2022-11-22T09:26:28.641Z,20.31
2022-11-22T09:27:28.628Z,20.34
2022-11-22T09:28:28.760Z,20.31
2022-11-22T09:29:29.103Z,20.27
2022-11-22T09:30:28.597Z,20.33
2022-11-22T09:31:28.595Z,20.25
2022-11-22T09:32:33.513Z,20.33
2022-11-22T09:33:29.561Z,20.38
2022-11-22T09:34:28.550Z,20.35
2022-11-22T09:35:28.549Z,20.41
2022-11-22T09:36:28.529Z,20.35
2022-11-22T09:37:28.523Z,20.30
2022-11-22T09:38:28.506Z,20.39
2022-11-22T09:39:28.753Z,20.34
2022-11-22T09:40:28.484Z,20.41
2022-11-22T09:41:28.481Z,20.34
2022-11-22T09:42:28.460Z,20.41
2022-11-22T09:43:28.457Z,20.39
2022-11-22T09:44:28.555Z,20.39
2022-11-22T09:45:28.428Z,20.34
2022-11-22T09:46:28.418Z,20.33
2022-11-22T09:47:28.406Z,20.34
2022-11-22T09:48:28.395Z,20.38
2022-11-22T09:49:29.057Z,20.42
2022-11-22T09:50:28.371Z,20.35
2022-11-22T09:51:28.359Z,20.35
2022-11-22T09:52:28.353Z,20.34
2022-11-22T09:53:28.337Z,20.35
2022-11-22T09:54:28.326Z,20.38
2022-11-22T09:55:28.322Z,20.35
2022-11-22T09:56:28.304Z,20.38
2022-11-22T09:57:28.293Z,20.39
2022-11-22T09:58:28.281Z,20.47
2022-11-22T09:59:28.669Z,20.38
2022-11-22T10:00:28.376Z,20.39
2022-11-22T10:01:28.350Z,20.43
2022-11-22T10:02:28.240Z,20.39
2022-11-22T10:03:28.227Z,20.42
2022-11-22T10:04:28.214Z,20.35
2022-11-22T10:05:28.204Z,20.43
2022-11-22T10:06:28.192Z,20.43
2022-11-22T10:07:28.273Z,20.41
2022-11-22T10:08:28.172Z,20.38
2022-11-22T10:09:28.723Z,20.43
2022-11-22T10:10:28.148Z,20.46
2022-11-22T10:11:30.968Z,20.43
2022-11-22T10:12:29.132Z,20.43
2022-11-22T10:13:28.117Z,20.43
2022-11-22T10:14:28.102Z,20.41
2022-11-22T10:15:28.091Z,20.39
2022-11-22T10:16:28.207Z,20.46
2022-11-22T10:17:28.069Z,20.42
2022-11-22T10:18:28.074Z,20.42
2022-11-22T10:19:28.331Z,20.46
2022-11-22T10:20:28.035Z,20.38
2022-11-22T10:21:28.039Z,20.39
2022-11-22T10:22:28.013Z,20.53
2022-11-22T10:23:28.004Z,20.42
2022-11-22T10:24:27.996Z,20.39
2022-11-22T10:25:27.983Z,20.46
2022-11-22T10:26:27.969Z,20.42
2022-11-22T10:27:27.956Z,20.43
2022-11-22T10:28:27.947Z,20.47
2022-11-22T10:29:28.185Z,20.46
2022-11-22T10:30:27.929Z,20.49
2022-11-22T10:31:27.913Z,20.47
2022-11-22T10:32:28.017Z,20.47
2022-11-22T10:33:27.891Z,20.54
2022-11-22T10:34:27.878Z,20.51
2022-11-22T10:35:27.869Z,20.49
2022-11-22T10:36:27.862Z,20.51
2022-11-22T10:37:27.844Z,20.54
2022-11-22T10:38:27.834Z,20.51
2022-11-22T10:39:32.894Z,20.49
2022-11-22T10:40:28.820Z,20.53
2022-11-22T10:41:27.800Z,20.43
2022-11-22T10:42:27.795Z,20.51
2022-11-22T10:43:27.779Z,20.47
2022-11-22T10:44:27.766Z,20.46
2022-11-22T10:45:27.756Z,20.50
2022-11-22T10:46:27.744Z,20.43
2022-11-22T10:47:33.030Z,20.46
2022-11-22T10:48:28.838Z,20.51
2022-11-22T10:49:27.882Z,20.49
2022-11-22T10:50:27.701Z,20.49
2022-11-22T10:51:27.688Z,20.41
2022-11-22T10:52:27.676Z,20.47
2022-11-22T10:53:27.667Z,20.53
2022-11-22T10:54:27.684Z,20.50
2022-11-22T10:55:27.642Z,20.47
2022-11-22T10:56:27.632Z,20.50
2022-11-22T10:57:27.622Z,20.41
2022-11-22T10:58:27.610Z,20.53
2022-11-22T10:59:29.168Z,20.47
2022-11-22T11:00:27.593Z,20.51
2022-11-22T11:01:27.641Z,20.43
2022-11-22T11:02:27.564Z,20.43
2022-11-22T11:03:27.553Z,20.50
2022-11-22T11:04:27.654Z,20.49
2022-11-22T11:05:27.531Z,20.54
2022-11-22T11:06:43.555Z,20.56
2022-11-22T11:07:28.547Z,20.49
2022-11-22T11:08:47.548Z,20.49
2022-11-22T11:10:34.298Z,20.46
2022-11-22T11:11:28.485Z,20.47
2022-11-22T11:12:27.452Z,20.50
2022-11-22T11:13:27.441Z,20.47
2022-11-22T11:14:27.698Z,20.53
2022-11-22T11:15:27.426Z,20.59
2022-11-22T11:16:27.408Z,20.50
2022-11-22T11:17:27.421Z,20.47
2022-11-22T11:18:27.386Z,20.47
2022-11-22T11:19:27.376Z,20.53
2022-11-22T11:20:27.480Z,20.59
2022-11-22T11:21:27.366Z,20.53
2022-11-22T11:22:58.490Z,20.56
2022-11-22T11:23:28.337Z,20.54
2022-11-22T11:24:27.590Z,20.56
2022-11-22T11:25:27.311Z,20.56
2022-11-22T11:26:27.299Z,20.59
2022-11-22T11:27:27.284Z,20.53
2022-11-22T11:28:27.284Z,20.56
2022-11-22T11:29:27.270Z,20.56
2022-11-22T11:30:27.252Z,20.54
2022-11-22T11:31:27.239Z,20.49
2022-11-22T11:32:27.228Z,20.62
2022-11-22T11:33:27.217Z,20.54
2022-11-22T11:34:27.349Z,20.61
2022-11-22T11:35:27.201Z,20.61
2022-11-22T11:36:27.297Z,20.61
2022-11-22T11:37:27.180Z,20.62
2022-11-22T11:38:27.160Z,20.54
2022-11-22T11:39:27.272Z,20.58
2022-11-22T11:40:27.140Z,20.46
2022-11-22T11:41:27.134Z,20.59
2022-11-22T11:42:27.119Z,20.51
2022-11-22T11:43:27.105Z,20.59
2022-11-22T11:44:27.323Z,20.53
2022-11-22T11:45:27.084Z,20.51
2022-11-22T11:46:27.076Z,20.56
2022-11-22T11:47:27.079Z,20.54
2022-11-22T11:48:27.082Z,20.56
2022-11-22T11:49:27.038Z,20.56
2022-11-22T11:50:27.029Z,20.61
2022-11-22T11:51:27.021Z,20.59
2022-11-22T11:52:27.126Z,20.58
2022-11-22T11:53:27.009Z,20.59
2022-11-22T11:54:26.982Z,20.61
2022-11-22T11:55:26.971Z,20.68
2022-11-22T11:56:26.960Z,20.51
2022-11-22T11:57:26.951Z,20.59
2022-11-22T11:58:26.936Z,20.58
2022-11-22T11:59:26.933Z,20.59
2022-11-22T12:00:26.914Z,20.59
2022-11-22T12:01:26.904Z,20.62
2022-11-22T12:02:26.979Z,20.61
2022-11-22T12:03:26.888Z,20.54
2022-11-22T12:04:26.869Z,20.59
2022-11-22T12:05:26.868Z,20.56
2022-11-22T12:06:26.848Z,20.53
2022-11-22T12:07:26.978Z,20.62
2022-11-22T12:08:26.942Z,20.53
2022-11-22T12:09:26.814Z,20.61
2022-11-22T12:10:26.804Z,20.58
2022-11-22T12:11:26.800Z,20.61
2022-11-22T12:12:26.781Z,20.56
2022-11-22T12:13:26.770Z,20.51
2022-11-22T12:14:37.733Z,20.56
2022-11-22T12:15:27.746Z,20.58
2022-11-22T12:16:26.735Z,20.51
2022-11-22T12:17:26.732Z,20.53
2022-11-22T12:18:26.713Z,20.64
2022-11-22T12:19:26.703Z,20.58
2022-11-22T12:20:26.695Z,20.56
2022-11-22T12:21:26.679Z,20.54
2022-11-22T12:22:48.347Z,20.54
2022-11-22T12:23:27.660Z,20.62
2022-11-22T12:24:45.565Z,20.58
2022-11-22T12:25:35.332Z,20.56
2022-11-22T12:26:27.623Z,20.56
2022-11-22T12:27:26.613Z,20.59
2022-11-22T12:28:26.601Z,20.51
2022-11-22T12:29:26.600Z,20.56
2022-11-22T12:30:26.605Z,20.59
2022-11-22T12:31:26.568Z,20.65
2022-11-22T12:32:26.556Z,20.62
2022-11-22T12:33:26.545Z,20.56
2022-11-22T12:34:26.546Z,20.53
2022-11-22T12:35:26.530Z,20.62
2022-11-22T12:36:32.290Z,20.53
2022-11-22T12:37:27.500Z,20.54
2022-11-22T12:38:26.494Z,20.59
2022-11-22T12:39:26.478Z,20.61
2022-11-22T12:40:26.590Z,20.51
2022-11-22T12:41:26.463Z,20.62
2022-11-22T12:42:26.444Z,20.62
2022-11-22T12:43:26.436Z,20.56
2022-11-22T12:44:26.422Z,20.54
2022-11-22T12:45:26.411Z,20.56
2022-11-22T12:46:26.688Z,20.54
2022-11-22T12:47:26.395Z,20.56
2022-11-22T12:48:26.745Z,20.58
2022-11-22T12:49:26.367Z,20.56
2022-11-22T12:50:26.354Z,20.62
2022-11-22T12:51:26.345Z,20.62
2022-11-22T12:52:26.332Z,20.53
2022-11-22T12:53:26.329Z,20.54
2022-11-22T12:54:26.311Z,20.54
2022-11-22T12:55:26.298Z,20.50